Wednesday, April 25, 2018, 12:49 AM GMT
Back to Local

CYFC, Fredericton, N. B.

Location: , , Canada Lat: 45.867
Local Time: 12:49 AM GMT ( 0:49 GMT) Lon: -66.533
Time Zone: GMT Elev: 55 ft

Show me the last for .
Show Decoded

2018-04-25 00:00 METAR CYFC 250000Z AUTO 19012G18KT 9SM BKN220 BKN240 13/00 A3014 RMK SLP210 =
2018-04-24 23:00 METAR CYFC 242300Z AUTO 19013G21KT 9SM CLR 16/M00 A3013 RMK SLP205 =
2018-04-24 22:00 METAR CYFC 242200Z AUTO 18013KT 9SM CLR 17/02 A3012 RMK SLP202 DENSITY ALT 100FT
                 =
2018-04-24 21:00 METAR CYFC 242100Z AUTO 17014G21KT 9SM CLR 19/02 A3012 RMK SLP201 DENSITY ALT
                 300FT =
2018-04-24 20:00 METAR CYFC 242000Z AUTO 21017G22KT 9SM CLR 22/M03 A3011 RMK SLP200 DENSITY ALT
                 600FT =
2018-04-24 19:00 METAR CYFC 241900Z AUTO 23016KT 9SM CLR 22/M04 A3014 RMK SLP207 DENSITY ALT
                 600FT =
2018-04-24 18:00 METAR CYFC 241800Z AUTO 24014G21KT 9SM CLR 22/M03 A3016 RMK SLP216 DENSITY ALT
                 500FT =
2018-04-24 17:00 METAR CYFC 241700Z AUTO 24016G23KT 9SM CLR 21/M03 A3018 RMK SLP221 DENSITY ALT
                 400FT =
2018-04-24 16:00 METAR CYFC 241600Z AUTO 23015KT 200V260 9SM CLR 20/M03 A3021 RMK SLP231 DENSITY
                 ALT 300FT =
2018-04-24 15:00 METAR CYFC 241500Z AUTO 22009G15KT 190V250 9SM CLR 18/M03 A3024 RMK SLP241 =
2018-04-24 14:00 METAR CYFC 241400Z AUTO 23008KT 190V250 9SM CLR 15/M02 A3025 RMK SLP246 =
2018-04-24 13:00 METAR CYFC 241300Z AUTO 21007KT 9SM CLR 12/M03 A3027 RMK SLP252 =
2018-04-24 12:00 METAR CYFC 241200Z AUTO 21006KT 9SM FEW200 07/M04 A3028 RMK SLP256 =
2018-04-24 11:00 METAR CYFC 241100Z AUTO 20007KT 9SM CLR 03/M04 A3029 RMK SLP258 =
2018-04-24 10:00 METAR CYFC 241000Z AUTO 20004KT 9SM CLR M00/M04 A3029 RMK SLP260 =
2018-04-24 09:00 METAR CYFC 240900Z AUTO 19003KT 9SM BKN230 BKN250 M01/M04 A3030 RMK SLP261 =
2018-04-24 08:00 METAR CYFC 240800Z AUTO 00000KT 9SM CLR M01/M04 A3030 RMK SLP263 =
2018-04-24 07:00 METAR CYFC 240700Z AUTO 00000KT 9SM CLR 01/M05 A3030 RMK SLP263 =
2018-04-24 06:00 METAR CYFC 240600Z AUTO 19005KT 9SM CLR 01/M04 A3030 RMK SLP263 =
2018-04-24 05:00 METAR CYFC 240500Z AUTO 21006KT 9SM CLR 02/M03 A3031 RMK SLP266 =
2018-04-24 04:04 METAR CYFC 240404Z AUTO 20007KT 9SM CLR 02/M03 A3032 RMK SLP268 =
2018-04-24 04:00 METAR CYFC 240400Z AUTO 20008KT 9SM CLR 03/M03 A3032 RMK SLP268 =
2018-04-24 03:37 METAR CYFC 240337Z AUTO 19007KT 9SM CLR 02/M04 A3031 RMK SLP267 =
2018-04-24 03:04 METAR CYFC 240304Z AUTO 20006KT 9SM CLR 02/M04 A3032 RMK SLP268 =
2018-04-24 03:00 METAR CYFC 240300Z AUTO 21005KT 9SM CLR 03/M04 A3032 RMK SLP268 =
2018-04-24 02:00 METAR CYFC 240200Z AUTO 20007KT 9SM CLR 03/M03 A3032 RMK SLP269 =
2018-04-24 01:18 METAR CYFC 240118Z AUTO 18007KT 9SM CLR 02/M04 A3032 RMK SLP268 =
2018-04-24 01:00 METAR CYFC 240100Z AUTO 20004KT 9SM CLR 04/M04 A3032 RMK SLP268 =

Support USWX by starting your Amazon purchase here.